Terminal Aerodrome Forecast
Issued by NWS

Home | Current Version | Previous Version | Text Only | Print | Product List | Glossary On
Versions: 1 2 3 4 5 6 7 8 9 10 11 12 13 14 15 16
000
FTUS43 KLSX 070500
TAFSUS
TAF
KSUS 070520Z 0706/0806 16005KT P6SM SCT100 BKN250
     FM071500 17012G22KT P6SM SCT040 BKN250
     FM072000 18013G23KT P6SM VCTS SCT050CB BKN120
     FM080200 18005KT P6SM SCT080 BKN120=

USA.gov is the U.S. government's official web portal to all federal, state and local government web resources and services.